createdAt,value
2022-10-08T00:04:41.357Z,6.408026755852843
2022-10-08T00:14:05.570Z,5.852842809364549
2022-10-08T00:21:39.217Z,5.986622073578595
2022-10-08T00:28:06.921Z,6.1438127090301
2022-10-08T00:34:34.088Z,5.581939799331104
2022-10-08T00:41:00.986Z,5.9799331103678925
2022-10-08T00:47:28.765Z,5.240802675585284
2022-10-08T00:53:55.314Z,5.193979933110368
2022-10-08T01:00:23.225Z,5.224080267558528
2022-10-08T01:06:50.872Z,5.170568561872909
2022-10-08T01:13:18.271Z,5.170568561872909
2022-10-08T01:21:43.312Z,4.913043478260869
2022-10-08T01:28:31.425Z,4.94314381270903
2022-10-08T01:34:58.828Z,4.565217391304348
2022-10-08T01:41:27.077Z,4.709030100334449
2022-10-08T01:52:19.276Z,3.939799331103679
2022-10-08T01:58:48.238Z,4.531772575250836
2022-10-08T02:05:47.092Z,4.695652173913044
2022-10-08T02:19:27.141Z,4.006688963210703
2022-10-08T02:25:58.824Z,4.712374581939799
2022-10-08T02:32:26.293Z,4.849498327759197
2022-10-08T02:38:53.604Z,4.6923076923076925
2022-10-08T02:50:43.506Z,4.050167224080267
2022-10-08T02:57:11.433Z,4.147157190635451
2022-10-08T03:03:39.307Z,4.063545150501672
2022-10-08T03:10:06.816Z,4.157190635451505
2022-10-08T03:24:20.409Z,5.033444816053512
2022-10-08T03:30:59.212Z,4.351170568561873
2022-10-08T03:37:27.992Z,4.2441471571906355
2022-10-08T03:43:55.607Z,4.190635451505017
2022-10-08T03:50:22.744Z,3.668896321070234
2022-10-08T03:56:49.792Z,3.9464882943143813
2022-10-08T04:06:19.970Z,3.74247491638796
2022-10-08T04:16:04.300Z,3.6722408026755855
2022-10-08T04:22:32.070Z,3.9063545150501673
2022-10-08T04:30:29.180Z,3.5150501672240804
2022-10-08T04:38:53.249Z,3.1672240802675584
2022-10-08T04:45:20.252Z,3.0066889632107023
2022-10-08T04:51:47.834Z,3.1237458193979935
2022-10-08T04:58:56.347Z,3.254180602006689
2022-10-08T05:11:28.595Z,4.719063545150502
2022-10-08T05:17:55.543Z,4.638795986622074
2022-10-08T05:24:27.929Z,4.74247491638796
2022-10-08T05:36:24.925Z,4.441471571906354
2022-10-08T05:42:52.305Z,4.832775919732441
2022-10-08T05:50:46.276Z,4.173913043478261
2022-10-08T05:57:13.463Z,4.053511705685619
2022-10-08T06:03:41.062Z,4.2040133779264215
2022-10-08T06:15:36.877Z,4.260869565217392
2022-10-08T06:22:04.290Z,3.9264214046822743
2022-10-08T06:28:41.185Z,3.6555183946488294
2022-10-08T06:35:09.150Z,4.3879598662207355
2022-10-08T06:41:41.783Z,3.68561872909699
2022-10-08T06:48:09.227Z,5.54180602006689
2022-10-08T06:55:21.434Z,5.2274247491638794
2022-10-08T07:01:50.243Z,4.812709030100335
2022-10-08T07:08:17.910Z,6.1638795986622075
2022-10-08T07:14:45.289Z,6.441471571906354
2022-10-08T07:21:51.349Z,8.454849498327759
2022-10-08T07:28:26.034Z,8.996655518394649
2022-10-08T07:35:32.645Z,8.85953177257525
2022-10-08T07:42:00.157Z,8.648829431438127
2022-10-08T07:57:48.072Z,7.31438127090301
2022-10-08T08:04:16.635Z,7.2274247491638794
2022-10-08T08:10:44.846Z,7.1806020066889635
2022-10-08T08:24:03.382Z,6.133779264214047
2022-10-08T08:30:43.487Z,5.625418060200669
2022-10-08T08:37:12.399Z,6.311036789297659
2022-10-08T08:45:45.300Z,5.334448160535117
2022-10-08T08:52:14.764Z,4.525083612040134
2022-10-08T08:58:43.573Z,3.3812709030100336
2022-10-08T09:05:12.055Z,3.391304347826087
2022-10-08T09:14:16.917Z,1.6020066889632107
2022-10-08T09:25:13.957Z,1.334448160535117
2022-10-08T09:31:41.485Z,1.3645484949832776
2022-10-08T09:38:09.276Z,1.1672240802675586
2022-10-08T09:50:32.359Z,0.68561872909699
2022-10-08T09:57:00.883Z,1.234113712374582
2022-10-08T10:03:29.110Z,0.68561872909699
2022-10-08T10:09:56.522Z,0.9063545150501672
2022-10-08T10:16:24.663Z,0.4080267558528428
2022-10-08T10:22:54.326Z,1.4247491638795986
2022-10-08T10:29:24.662Z,2.0635451505016724
2022-10-08T10:35:51.552Z,0.20735785953177258
2022-10-08T10:42:18.680Z,0.3210702341137124
2022-10-08T10:48:46.076Z,0.2408026755852843
2022-10-08T10:59:00.178Z,0.24414715719063546
2022-10-08T11:05:28.007Z,0.15719063545150502
2022-10-08T11:11:56.198Z,0.7023411371237458
2022-10-08T11:18:23.191Z,0.34448160535117056
2022-10-08T11:24:59.067Z,0.35785953177257523
2022-10-08T11:34:49.384Z,0.2976588628762542
2022-10-08T11:41:17.236Z,0.26755852842809363
2022-10-08T11:47:44.630Z,0.06688963210702341
2022-10-08T11:54:14.204Z,0.12040133779264214
2022-10-08T12:00:42.313Z,0.010033444816053512
2022-10-08T12:07:09.422Z,0.043478260869565216
2022-10-08T12:18:14.435Z,0.11371237458193979
2022-10-08T12:24:50.695Z,0.10367892976588629
2022-10-08T12:34:16.550Z,0.17391304347826086
2022-10-08T12:40:45.351Z,0.06688963210702341
2022-10-08T12:47:13.527Z,0.06688963210702341
2022-10-08T12:53:41.741Z,0.12709030100334448
2022-10-08T13:11:26.109Z,0.12709030100334448
2022-10-08T13:17:53.840Z,0.08695652173913043
2022-10-08T13:24:28.836Z,0.046822742474916385
2022-10-08T13:30:57.422Z,0.27424749163879597
2022-10-08T13:37:24.525Z,0.4080267558528428
2022-10-08T13:43:52.497Z,0.19732441471571907
2022-10-08T13:50:19.700Z,0.11036789297658862
2022-10-08T13:56:46.844Z,0.12709030100334448
2022-10-08T14:03:14.531Z,0.12709030100334448
2022-10-08T14:09:42.226Z,0.17391304347826086
2022-10-08T14:16:10.289Z,0.19732441471571907
2022-10-08T14:22:42.768Z,0.06020066889632107
2022-10-08T14:29:10.992Z,0.36789297658862874
2022-10-08T14:35:38.831Z,0.06688963210702341
2022-10-08T14:42:07.000Z,0.45484949832775917
2022-10-08T14:54:14.165Z,0.17725752508361203
2022-10-08T15:00:43.035Z,0.033444816053511704
2022-10-08T15:07:11.062Z,0.2140468227424749
2022-10-08T15:13:41.210Z,0.0802675585284281
2022-10-08T15:20:10.231Z,1.725752508361204
2022-10-08T15:26:44.547Z,0.7859531772575251
2022-10-08T15:49:40.930Z,0.22408026755852842
2022-10-08T15:56:11.886Z,0.19732441471571907
2022-10-08T16:02:43.226Z,0.4882943143812709
2022-10-08T16:09:13.482Z,0.21070234113712374
2022-10-08T16:16:00.464Z,0.3277591973244147
2022-10-08T16:22:47.816Z,0.49498327759197325
2022-10-08T16:29:52.845Z,0.9966555183946488
2022-10-08T16:36:30.151Z,1.3277591973244147
2022-10-08T16:43:14.981Z,0.8361204013377926
2022-10-08T16:52:01.170Z,0.46488294314381273
2022-10-08T16:59:40.120Z,0.6722408026755853
2022-10-08T17:06:22.632Z,1.3444816053511706
2022-10-08T17:13:07.646Z,0.8361204013377926
2022-10-08T17:19:44.232Z,0.705685618729097
2022-10-08T17:26:20.126Z,0.8394648829431438
2022-10-08T17:33:02.138Z,1.0668896321070234
2022-10-08T17:39:41.843Z,1.2040133779264215
2022-10-08T17:46:27.266Z,1.2976588628762542
2022-10-08T17:52:55.992Z,1.0769230769230769
2022-10-08T17:59:23.107Z,1.1036789297658862
2022-10-08T18:05:51.714Z,1.4180602006688963
2022-10-08T18:12:21.115Z,1.1672240802675586
2022-10-08T18:18:49.429Z,2.2073578595317724
2022-10-08T18:25:16.716Z,3.0267558528428093
2022-10-08T18:31:44.791Z,3.6956521739130435
2022-10-08T18:38:13.148Z,3.5451505016722407
2022-10-08T18:49:55.390Z,3.1939799331103678
2022-10-08T19:01:00.680Z,3.0234113712374584
2022-10-08T19:07:29.003Z,2.8060200668896322
2022-10-08T19:34:35.076Z,5.722408026755853
2022-10-08T19:41:14.492Z,4.976588628762542
2022-10-08T19:47:46.659Z,4.431438127090301
2022-10-08T20:03:11.377Z,4.829431438127091
2022-10-08T20:09:42.081Z,4.953177257525083
2022-10-08T20:16:12.427Z,6.043478260869565
2022-10-08T20:22:46.635Z,5.822742474916388
2022-10-08T20:29:18.608Z,5.327759197324415
2022-10-08T20:35:50.708Z,4.210702341137123
2022-10-08T20:42:22.255Z,4.337792642140468
2022-10-08T20:49:20.239Z,3.6722408026755855
2022-10-08T20:55:49.103Z,4.879598662207358
2022-10-08T21:02:19.579Z,5.177257525083612
2022-10-08T21:11:32.860Z,4.555183946488294
2022-10-08T21:21:15.529Z,4.207357859531773
2022-10-08T21:28:05.335Z,3.62876254180602
2022-10-08T21:34:33.932Z,3.82943143812709
2022-10-08T21:41:01.663Z,3.7725752508361206
2022-10-08T21:47:29.457Z,3.2274247491638794
2022-10-08T21:53:56.437Z,3.9364548494983276
2022-10-08T22:00:22.942Z,3.8896321070234112
2022-10-08T22:06:50.243Z,4.003344481605351
2022-10-08T22:13:17.017Z,4.287625418060201
2022-10-08T22:19:44.652Z,4.20066889632107
2022-10-08T22:38:06.562Z,3.491638795986622
2022-10-08T22:44:33.729Z,3.4749163879598663
2022-10-08T22:51:02.520Z,3.140468227424749
2022-10-08T22:57:29.198Z,3.25752508361204
2022-10-08T23:03:56.495Z,3.68561872909699
2022-10-08T23:10:23.935Z,4.431438127090301
2022-10-08T23:16:50.875Z,3.6387959866220734
2022-10-08T23:23:26.319Z,3.959866220735786
2022-10-08T23:29:53.350Z,4.558528428093646
2022-10-08T23:36:19.848Z,4.391304347826087
2022-10-08T23:42:46.966Z,3.68561872909699
2022-10-08T23:49:13.952Z,3.705685618729097
